sensor_id;sensor_type;location;lat;lon;timestamp;temperature;humidity
11304;DHT22;5707;49.588;12.148;2023-05-02T00:01:01;5.60;99.90
11304;DHT22;5707;49.588;12.148;2023-05-02T00:03:30;5.60;99.90
11304;DHT22;5707;49.588;12.148;2023-05-02T00:05:56;5.50;99.90
11304;DHT22;5707;49.588;12.148;2023-05-02T00:08:21;5.50;99.90
11304;DHT22;5707;49.588;12.148;2023-05-02T00:10:48;5.30;99.90
11304;DHT22;5707;49.588;12.148;2023-05-02T00:13:13;5.10;99.90
11304;DHT22;5707;49.588;12.148;2023-05-02T00:15:39;5.00;99.90
11304;DHT22;5707;49.588;12.148;2023-05-02T00:18:04;4.90;99.90
11304;DHT22;5707;49.588;12.148;2023-05-02T00:20:30;4.80;99.90
11304;DHT22;5707;49.588;12.148;2023-05-02T00:22:55;4.60;99.90
11304;DHT22;5707;49.588;12.148;2023-05-02T00:25:21;4.60;99.90
11304;DHT22;5707;49.588;12.148;2023-05-02T00:27:47;4.50;99.90
11304;DHT22;5707;49.588;12.148;2023-05-02T00:30:15;4.40;99.90
11304;DHT22;5707;49.588;12.148;2023-05-02T00:32:41;4.30;99.90
11304;DHT22;5707;49.588;12.148;2023-05-02T00:35:07;4.30;99.90
11304;DHT22;5707;49.588;12.148;2023-05-02T00:37:32;4.30;99.90
11304;DHT22;5707;49.588;12.148;2023-05-02T00:39:58;4.30;99.90
11304;DHT22;5707;49.588;12.148;2023-05-02T00:42:23;4.30;99.90
11304;DHT22;5707;49.588;12.148;2023-05-02T00:44:49;4.20;99.90
11304;DHT22;5707;49.588;12.148;2023-05-02T00:47:15;4.20;99.90
11304;DHT22;5707;49.588;12.148;2023-05-02T00:49:40;4.20;99.90
11304;DHT22;5707;49.588;12.148;2023-05-02T00:52:07;4.10;99.90
11304;DHT22;5707;49.588;12.148;2023-05-02T00:54:33;4.00;99.90
11304;DHT22;5707;49.588;12.148;2023-05-02T00:56:58;3.90;99.90
11304;DHT22;5707;49.588;12.148;2023-05-02T00:59:24;3.90;99.90
11304;DHT22;5707;49.588;12.148;2023-05-02T01:02:10;3.90;99.90
11304;DHT22;5707;49.588;12.148;2023-05-02T01:12:42;3.90;99.90
11304;DHT22;5707;49.588;12.148;2023-05-02T01:15:11;4.00;99.90
11304;DHT22;5707;49.588;12.148;2023-05-02T01:17:40;3.90;99.90
11304;DHT22;5707;49.588;12.148;2023-05-02T01:20:10;3.70;99.90
11304;DHT22;5707;49.588;12.148;2023-05-02T01:22:37;3.60;99.90
11304;DHT22;5707;49.588;12.148;2023-05-02T01:30:40;3.90;99.90
11304;DHT22;5707;49.588;12.148;2023-05-02T01:33:08;3.80;99.90
11304;DHT22;5707;49.588;12.148;2023-05-02T01:35:36;3.70;99.90
11304;DHT22;5707;49.588;12.148;2023-05-02T01:38:03;3.70;99.90
11304;DHT22;5707;49.588;12.148;2023-05-02T01:40:30;3.60;99.90
11304;DHT22;5707;49.588;12.148;2023-05-02T01:42:58;3.60;99.90
11304;DHT22;5707;49.588;12.148;2023-05-02T01:45:26;3.60;99.90
11304;DHT22;5707;49.588;12.148;2023-05-02T01:47:53;3.60;99.90
11304;DHT22;5707;49.588;12.148;2023-05-02T01:50:22;3.50;99.90
11304;DHT22;5707;49.588;12.148;2023-05-02T01:52:50;3.40;99.90
11304;DHT22;5707;49.588;12.148;2023-05-02T01:55:17;3.30;99.90
11304;DHT22;5707;49.588;12.148;2023-05-02T01:57:46;3.30;99.90
11304;DHT22;5707;49.588;12.148;2023-05-02T02:00:13;3.20;99.90
11304;DHT22;5707;49.588;12.148;2023-05-02T02:02:41;3.20;99.90
11304;DHT22;5707;49.588;12.148;2023-05-02T02:05:08;3.20;99.90
11304;DHT22;5707;49.588;12.148;2023-05-02T02:07:35;3.20;99.90
11304;DHT22;5707;49.588;12.148;2023-05-02T02:10:00;3.10;99.90
11304;DHT22;5707;49.588;12.148;2023-05-02T02:12:31;3.00;99.90
11304;DHT22;5707;49.588;12.148;2023-05-02T02:17:43;3.10;99.90
11304;DHT22;5707;49.588;12.148;2023-05-02T02:20:11;3.10;99.90
11304;DHT22;5707;49.588;12.148;2023-05-02T02:22:39;3.20;99.90
11304;DHT22;5707;49.588;12.148;2023-05-02T02:25:07;3.30;99.90
11304;DHT22;5707;49.588;12.148;2023-05-02T02:27:36;3.30;99.90
11304;DHT22;5707;49.588;12.148;2023-05-02T02:30:02;3.30;99.90
11304;DHT22;5707;49.588;12.148;2023-05-02T02:32:28;3.30;99.90
11304;DHT22;5707;49.588;12.148;2023-05-02T02:34:54;3.30;99.90
11304;DHT22;5707;49.588;12.148;2023-05-02T02:37:28;3.20;99.90
11304;DHT22;5707;49.588;12.148;2023-05-02T02:40:11;3.20;99.90
11304;DHT22;5707;49.588;12.148;2023-05-02T02:42:58;3.20;99.90
11304;DHT22;5707;49.588;12.148;2023-05-02T02:45:32;3.10;99.90
11304;DHT22;5707;49.588;12.148;2023-05-02T02:48:14;3.10;99.90
11304;DHT22;5707;49.588;12.148;2023-05-02T02:51:01;3.20;99.90
11304;DHT22;5707;49.588;12.148;2023-05-02T02:56:36;3.30;99.90
11304;DHT22;5707;49.588;12.148;2023-05-02T02:59:22;3.40;99.90
11304;DHT22;5707;49.588;12.148;2023-05-02T03:02:07;3.40;99.90
11304;DHT22;5707;49.588;12.148;2023-05-02T03:04:35;3.30;99.90
11304;DHT22;5707;49.588;12.148;2023-05-02T03:07:02;3.30;99.90
11304;DHT22;5707;49.588;12.148;2023-05-02T03:09:38;3.20;99.90
11304;DHT22;5707;49.588;12.148;2023-05-02T03:12:04;3.10;99.90
11304;DHT22;5707;49.588;12.148;2023-05-02T03:14:30;3.10;99.90
11304;DHT22;5707;49.588;12.148;2023-05-02T03:16:56;3.20;99.90
11304;DHT22;5707;49.588;12.148;2023-05-02T03:19:22;3.30;99.90
11304;DHT22;5707;49.588;12.148;2023-05-02T03:21:47;3.30;99.90
11304;DHT22;5707;49.588;12.148;2023-05-02T03:24:13;3.30;99.90
11304;DHT22;5707;49.588;12.148;2023-05-02T03:26:40;3.20;99.90
11304;DHT22;5707;49.588;12.148;2023-05-02T03:29:05;3.20;99.90
11304;DHT22;5707;49.588;12.148;2023-05-02T03:31:31;3.20;99.90
11304;DHT22;5707;49.588;12.148;2023-05-02T03:33:56;3.30;99.90
11304;DHT22;5707;49.588;12.148;2023-05-02T03:36:22;3.30;99.90
11304;DHT22;5707;49.588;12.148;2023-05-02T03:38:47;3.30;99.90
11304;DHT22;5707;49.588;12.148;2023-05-02T03:41:13;3.40;99.90
11304;DHT22;5707;49.588;12.148;2023-05-02T03:43:39;3.40;99.90
11304;DHT22;5707;49.588;12.148;2023-05-02T03:46:06;3.40;99.90
11304;DHT22;5707;49.588;12.148;2023-05-02T03:48:36;3.50;99.90
11304;DHT22;5707;49.588;12.148;2023-05-02T03:51:03;3.50;99.90
11304;DHT22;5707;49.588;12.148;2023-05-02T03:53:30;3.60;99.90
11304;DHT22;5707;49.588;12.148;2023-05-02T03:55:56;3.50;99.90
11304;DHT22;5707;49.588;12.148;2023-05-02T03:58:22;3.60;99.90
11304;DHT22;5707;49.588;12.148;2023-05-02T04:00:47;3.60;99.90
11304;DHT22;5707;49.588;12.148;2023-05-02T04:03:13;3.60;99.90
11304;DHT22;5707;49.588;12.148;2023-05-02T04:05:39;3.70;99.90
11304;DHT22;5707;49.588;12.148;2023-05-02T04:08:04;3.70;99.90
11304;DHT22;5707;49.588;12.148;2023-05-02T04:10:30;3.70;99.90
11304;DHT22;5707;49.588;12.148;2023-05-02T04:12:56;3.80;99.90
11304;DHT22;5707;49.588;12.148;2023-05-02T04:15:21;3.90;99.90
11304;DHT22;5707;49.588;12.148;2023-05-02T04:17:47;4.00;99.90
11304;DHT22;5707;49.588;12.148;2023-05-02T04:20:12;4.00;99.90
11304;DHT22;5707;49.588;12.148;2023-05-02T04:22:38;4.10;99.90
11304;DHT22;5707;49.588;12.148;2023-05-02T04:25:04;4.20;99.90
11304;DHT22;5707;49.588;12.148;2023-05-02T04:27:31;4.30;99.90
11304;DHT22;5707;49.588;12.148;2023-05-02T04:29:56;4.40;99.90
11304;DHT22;5707;49.588;12.148;2023-05-02T04:32:22;4.40;99.90
11304;DHT22;5707;49.588;12.148;2023-05-02T04:34:48;4.50;99.90
11304;DHT22;5707;49.588;12.148;2023-05-02T04:37:13;4.60;99.90
11304;DHT22;5707;49.588;12.148;2023-05-02T04:39:39;4.70;99.90
11304;DHT22;5707;49.588;12.148;2023-05-02T04:42:04;4.70;99.90
11304;DHT22;5707;49.588;12.148;2023-05-02T04:44:30;4.80;99.90
11304;DHT22;5707;49.588;12.148;2023-05-02T04:46:55;4.80;99.90
11304;DHT22;5707;49.588;12.148;2023-05-02T04:49:21;4.90;99.90
11304;DHT22;5707;49.588;12.148;2023-05-02T04:51:47;5.10;99.90
11304;DHT22;5707;49.588;12.148;2023-05-02T04:54:13;5.30;99.90
11304;DHT22;5707;49.588;12.148;2023-05-02T04:56:38;5.40;99.90
11304;DHT22;5707;49.588;12.148;2023-05-02T04:59:04;5.60;99.90
11304;DHT22;5707;49.588;12.148;2023-05-02T05:01:30;5.60;99.90
11304;DHT22;5707;49.588;12.148;2023-05-02T05:03:55;5.70;99.90
11304;DHT22;5707;49.588;12.148;2023-05-02T05:06:21;5.70;99.90
11304;DHT22;5707;49.588;12.148;2023-05-02T05:08:47;5.80;99.90
11304;DHT22;5707;49.588;12.148;2023-05-02T05:11:13;5.90;99.90
11304;DHT22;5707;49.588;12.148;2023-05-02T05:13:40;6.10;99.90
11304;DHT22;5707;49.588;12.148;2023-05-02T05:16:06;6.20;99.90
11304;DHT22;5707;49.588;12.148;2023-05-02T05:18:32;6.40;99.90
11304;DHT22;5707;49.588;12.148;2023-05-02T05:21:05;6.50;99.90
11304;DHT22;5707;49.588;12.148;2023-05-02T05:23:30;6.60;99.90
11304;DHT22;5707;49.588;12.148;2023-05-02T05:25:56;6.70;99.90
11304;DHT22;5707;49.588;12.148;2023-05-02T05:28:22;7.00;99.90
11304;DHT22;5707;49.588;12.148;2023-05-02T05:30:47;7.20;99.90
11304;DHT22;5707;49.588;12.148;2023-05-02T05:33:13;7.50;99.90
11304;DHT22;5707;49.588;12.148;2023-05-02T05:35:39;7.70;99.90
11304;DHT22;5707;49.588;12.148;2023-05-02T05:38:05;7.80;99.90
11304;DHT22;5707;49.588;12.148;2023-05-02T05:40:31;8.00;99.90
11304;DHT22;5707;49.588;12.148;2023-05-02T05:42:56;8.10;99.90
11304;DHT22;5707;49.588;12.148;2023-05-02T05:45:22;8.20;99.90
11304;DHT22;5707;49.588;12.148;2023-05-02T05:47:47;8.20;99.90
11304;DHT22;5707;49.588;12.148;2023-05-02T05:50:13;8.30;99.90
11304;DHT22;5707;49.588;12.148;2023-05-02T05:52:39;8.50;99.90
11304;DHT22;5707;49.588;12.148;2023-05-02T05:55:05;8.60;99.90
11304;DHT22;5707;49.588;12.148;2023-05-02T05:57:31;8.60;99.90
11304;DHT22;5707;49.588;12.148;2023-05-02T05:59:56;8.90;99.90
11304;DHT22;5707;49.588;12.148;2023-05-02T06:02:22;9.20;99.90
11304;DHT22;5707;49.588;12.148;2023-05-02T06:04:47;9.60;99.90
11304;DHT22;5707;49.588;12.148;2023-05-02T06:07:13;9.80;99.90
11304;DHT22;5707;49.588;12.148;2023-05-02T06:09:38;10.30;99.90
11304;DHT22;5707;49.588;12.148;2023-05-02T06:12:04;10.80;99.90
11304;DHT22;5707;49.588;12.148;2023-05-02T06:14:30;11.30;99.90
11304;DHT22;5707;49.588;12.148;2023-05-02T06:16:58;11.70;99.90
11304;DHT22;5707;49.588;12.148;2023-05-02T06:19:24;12.30;99.90
11304;DHT22;5707;49.588;12.148;2023-05-02T06:21:49;12.90;99.90
11304;DHT22;5707;49.588;12.148;2023-05-02T06:24:15;13.30;99.90
11304;DHT22;5707;49.588;12.148;2023-05-02T06:26:41;13.50;99.90
11304;DHT22;5707;49.588;12.148;2023-05-02T06:29:06;13.60;99.90
11304;DHT22;5707;49.588;12.148;2023-05-02T06:31:32;13.60;99.90
11304;DHT22;5707;49.588;12.148;2023-05-02T06:33:57;13.70;99.90
11304;DHT22;5707;49.588;12.148;2023-05-02T06:36:23;13.60;99.90
11304;DHT22;5707;49.588;12.148;2023-05-02T06:38:48;13.60;99.90
11304;DHT22;5707;49.588;12.148;2023-05-02T06:41:14;13.70;99.90
11304;DHT22;5707;49.588;12.148;2023-05-02T06:43:40;13.60;99.90
11304;DHT22;5707;49.588;12.148;2023-05-02T06:46:07;13.70;99.90
11304;DHT22;5707;49.588;12.148;2023-05-02T06:48:34;14.00;99.90
11304;DHT22;5707;49.588;12.148;2023-05-02T06:51:00;14.10;99.90
11304;DHT22;5707;49.588;12.148;2023-05-02T06:53:26;14.20;99.90
11304;DHT22;5707;49.588;12.148;2023-05-02T06:55:52;13.90;99.90
11304;DHT22;5707;49.588;12.148;2023-05-02T06:58:18;13.80;99.90
11304;DHT22;5707;49.588;12.148;2023-05-02T07:00:43;13.90;99.90
11304;DHT22;5707;49.588;12.148;2023-05-02T07:03:09;13.80;99.90
11304;DHT22;5707;49.588;12.148;2023-05-02T07:05:35;13.80;99.90
11304;DHT22;5707;49.588;12.148;2023-05-02T07:08:01;14.00;99.90
11304;DHT22;5707;49.588;12.148;2023-05-02T07:10:26;13.90;99.90
11304;DHT22;5707;49.588;12.148;2023-05-02T07:12:52;14.30;99.90
11304;DHT22;5707;49.588;12.148;2023-05-02T07:15:18;14.70;99.90
11304;DHT22;5707;49.588;12.148;2023-05-02T07:17:43;15.00;99.90
11304;DHT22;5707;49.588;12.148;2023-05-02T07:20:11;15.20;99.90
11304;DHT22;5707;49.588;12.148;2023-05-02T07:22:37;15.40;99.90
11304;DHT22;5707;49.588;12.148;2023-05-02T07:25:03;15.60;99.90
11304;DHT22;5707;49.588;12.148;2023-05-02T07:27:28;15.60;99.90
11304;DHT22;5707;49.588;12.148;2023-05-02T07:29:54;15.60;99.90
11304;DHT22;5707;49.588;12.148;2023-05-02T07:32:20;15.70;99.90
11304;DHT22;5707;49.588;12.148;2023-05-02T07:34:46;15.70;99.90
11304;DHT22;5707;49.588;12.148;2023-05-02T07:37:12;16.10;99.90
11304;DHT22;5707;49.588;12.148;2023-05-02T07:39:38;16.20;99.90
11304;DHT22;5707;49.588;12.148;2023-05-02T07:42:03;16.50;99.90
11304;DHT22;5707;49.588;12.148;2023-05-02T07:44:31;16.70;99.90
11304;DHT22;5707;49.588;12.148;2023-05-02T07:46:57;16.60;99.90
11304;DHT22;5707;49.588;12.148;2023-05-02T07:49:23;16.50;99.90
11304;DHT22;5707;49.588;12.148;2023-05-02T07:51:48;16.40;99.90
11304;DHT22;5707;49.588;12.148;2023-05-02T07:54:18;16.50;99.90
11304;DHT22;5707;49.588;12.148;2023-05-02T07:56:44;16.20;99.90
11304;DHT22;5707;49.588;12.148;2023-05-02T07:59:10;16.10;99.90
11304;DHT22;5707;49.588;12.148;2023-05-02T08:01:36;16.40;99.90
11304;DHT22;5707;49.588;12.148;2023-05-02T08:04:02;16.70;99.90
11304;DHT22;5707;49.588;12.148;2023-05-02T08:06:29;17.10;99.90
11304;DHT22;5707;49.588;12.148;2023-05-02T08:08:55;17.00;99.90
11304;DHT22;5707;49.588;12.148;2023-05-02T08:11:21;17.00;99.90
11304;DHT22;5707;49.588;12.148;2023-05-02T08:13:50;17.10;99.90
11304;DHT22;5707;49.588;12.148;2023-05-02T08:16:15;17.40;99.90
11304;DHT22;5707;49.588;12.148;2023-05-02T08:18:41;17.40;99.90
11304;DHT22;5707;49.588;12.148;2023-05-02T08:21:06;17.60;99.90
11304;DHT22;5707;49.588;12.148;2023-05-02T08:23:33;17.60;99.90
11304;DHT22;5707;49.588;12.148;2023-05-02T08:25:58;17.60;99.90
11304;DHT22;5707;49.588;12.148;2023-05-02T08:28:24;17.70;99.90
11304;DHT22;5707;49.588;12.148;2023-05-02T08:30:49;17.50;99.90
11304;DHT22;5707;49.588;12.148;2023-05-02T08:33:15;17.40;99.90
11304;DHT22;5707;49.588;12.148;2023-05-02T08:35:40;17.40;99.90
11304;DHT22;5707;49.588;12.148;2023-05-02T08:38:06;17.30;99.90
11304;DHT22;5707;49.588;12.148;2023-05-02T08:40:36;17.40;99.90
11304;DHT22;5707;49.588;12.148;2023-05-02T08:43:02;17.40;99.90
11304;DHT22;5707;49.588;12.148;2023-05-02T08:45:33;17.40;99.90
11304;DHT22;5707;49.588;12.148;2023-05-02T08:48:05;17.40;99.90
11304;DHT22;5707;49.588;12.148;2023-05-02T08:50:34;17.20;99.90
11304;DHT22;5707;49.588;12.148;2023-05-02T08:53:03;17.40;99.90
11304;DHT22;5707;49.588;12.148;2023-05-02T08:55:29;17.80;99.90
11304;DHT22;5707;49.588;12.148;2023-05-02T08:57:56;18.00;99.90
11304;DHT22;5707;49.588;12.148;2023-05-02T09:00:22;17.90;99.90
11304;DHT22;5707;49.588;12.148;2023-05-02T09:05:40;18.50;99.90
11304;DHT22;5707;49.588;12.148;2023-05-02T09:08:07;18.80;99.90
11304;DHT22;5707;49.588;12.148;2023-05-02T09:10:34;19.00;99.90
11304;DHT22;5707;49.588;12.148;2023-05-02T09:13:34;19.40;99.90
11304;DHT22;5707;49.588;12.148;2023-05-02T09:18:34;19.40;99.90
11304;DHT22;5707;49.588;12.148;2023-05-02T09:21:13;19.30;98.80
11304;DHT22;5707;49.588;12.148;2023-05-02T09:26:17;19.00;99.50
11304;DHT22;5707;49.588;12.148;2023-05-02T09:31:12;18.80;99.90
11304;DHT22;5707;49.588;12.148;2023-05-02T09:33:39;18.90;99.90
11304;DHT22;5707;49.588;12.148;2023-05-02T09:36:06;18.90;99.60
11304;DHT22;5707;49.588;12.148;2023-05-02T09:38:32;18.90;99.60
11304;DHT22;5707;49.588;12.148;2023-05-02T09:40:58;19.00;99.90
11304;DHT22;5707;49.588;12.148;2023-05-02T09:43:25;19.60;99.70
11304;DHT22;5707;49.588;12.148;2023-05-02T09:46:08;20.00;97.10
11304;DHT22;5707;49.588;12.148;2023-05-02T09:48:54;20.00;96.90
11304;DHT22;5707;49.588;12.148;2023-05-02T09:51:22;20.00;95.80
11304;DHT22;5707;49.588;12.148;2023-05-02T09:53:48;20.20;95.90
11304;DHT22;5707;49.588;12.148;2023-05-02T09:56:15;20.10;95.80
11304;DHT22;5707;49.588;12.148;2023-05-02T09:58:40;20.10;96.40
11304;DHT22;5707;49.588;12.148;2023-05-02T10:01:06;19.80;96.50
11304;DHT22;5707;49.588;12.148;2023-05-02T10:03:36;19.70;96.10
11304;DHT22;5707;49.588;12.148;2023-05-02T10:06:02;19.90;96.60
11304;DHT22;5707;49.588;12.148;2023-05-02T10:08:32;20.10;95.30
11304;DHT22;5707;49.588;12.148;2023-05-02T10:10:59;20.20;96.50
11304;DHT22;5707;49.588;12.148;2023-05-02T10:13:26;20.20;96.70
11304;DHT22;5707;49.588;12.148;2023-05-02T10:16:03;20.00;95.20
11304;DHT22;5707;49.588;12.148;2023-05-02T10:20:57;19.40;96.50
11304;DHT22;5707;49.588;12.148;2023-05-02T10:23:27;19.20;96.20
11304;DHT22;5707;49.588;12.148;2023-05-02T10:25:54;19.30;95.90
11304;DHT22;5707;49.588;12.148;2023-05-02T10:28:22;19.20;96.40
11304;DHT22;5707;49.588;12.148;2023-05-02T10:30:49;19.50;96.40
11304;DHT22;5707;49.588;12.148;2023-05-02T10:33:16;19.40;97.20
11304;DHT22;5707;49.588;12.148;2023-05-02T10:35:43;19.30;97.90
11304;DHT22;5707;49.588;12.148;2023-05-02T10:38:16;18.90;97.00
11304;DHT22;5707;49.588;12.148;2023-05-02T10:40:48;18.40;98.50
11304;DHT22;5707;49.588;12.148;2023-05-02T10:43:23;18.10;99.60
11304;DHT22;5707;49.588;12.148;2023-05-02T10:45:49;17.90;99.50
11304;DHT22;5707;49.588;12.148;2023-05-02T10:48:16;17.50;99.70
11304;DHT22;5707;49.588;12.148;2023-05-02T10:50:49;17.20;99.90
11304;DHT22;5707;49.588;12.148;2023-05-02T10:53:29;17.00;99.90
11304;DHT22;5707;49.588;12.148;2023-05-02T10:58:40;17.10;99.90
11304;DHT22;5707;49.588;12.148;2023-05-02T11:03:54;17.20;99.90
11304;DHT22;5707;49.588;12.148;2023-05-02T11:06:21;17.50;99.90
11304;DHT22;5707;49.588;12.148;2023-05-02T11:08:46;17.90;99.90
11304;DHT22;5707;49.588;12.148;2023-05-02T11:11:38;18.10;99.90
11304;DHT22;5707;49.588;12.148;2023-05-02T11:14:05;18.30;99.90
11304;DHT22;5707;49.588;12.148;2023-05-02T11:19:26;18.70;99.90
11304;DHT22;5707;49.588;12.148;2023-05-02T11:21:58;19.20;99.90
11304;DHT22;5707;49.588;12.148;2023-05-02T11:24:41;19.20;99.90
11304;DHT22;5707;49.588;12.148;2023-05-02T11:32:22;19.60;99.90
11304;DHT22;5707;49.588;12.148;2023-05-02T11:34:50;19.60;99.90
11304;DHT22;5707;49.588;12.148;2023-05-02T11:37:18;19.70;99.90
11304;DHT22;5707;49.588;12.148;2023-05-02T11:39:43;19.40;99.90
11304;DHT22;5707;49.588;12.148;2023-05-02T11:42:30;19.20;99.90
11304;DHT22;5707;49.588;12.148;2023-05-02T11:44:57;19.20;99.90
11304;DHT22;5707;49.588;12.148;2023-05-02T11:47:23;18.80;99.90
11304;DHT22;5707;49.588;12.148;2023-05-02T11:49:49;18.70;99.90
11304;DHT22;5707;49.588;12.148;2023-05-02T11:52:15;18.70;99.90
11304;DHT22;5707;49.588;12.148;2023-05-02T11:54:41;18.60;99.90
11304;DHT22;5707;49.588;12.148;2023-05-02T11:57:06;18.50;99.90
11304;DHT22;5707;49.588;12.148;2023-05-02T11:59:49;18.40;99.90
11304;DHT22;5707;49.588;12.148;2023-05-02T12:02:15;18.30;99.90
11304;DHT22;5707;49.588;12.148;2023-05-02T12:04:43;18.60;99.90
11304;DHT22;5707;49.588;12.148;2023-05-02T12:07:09;18.50;99.90
11304;DHT22;5707;49.588;12.148;2023-05-02T12:09:35;18.50;99.90
11304;DHT22;5707;49.588;12.148;2023-05-02T12:12:00;18.50;99.90
11304;DHT22;5707;49.588;12.148;2023-05-02T12:14:31;18.70;99.90
11304;DHT22;5707;49.588;12.148;2023-05-02T12:17:02;18.80;99.90
11304;DHT22;5707;49.588;12.148;2023-05-02T12:19:27;18.90;99.90
11304;DHT22;5707;49.588;12.148;2023-05-02T12:21:53;19.10;99.90
11304;DHT22;5707;49.588;12.148;2023-05-02T12:24:19;19.00;99.90
11304;DHT22;5707;49.588;12.148;2023-05-02T12:26:45;19.20;99.90
11304;DHT22;5707;49.588;12.148;2023-05-02T12:29:11;19.30;99.90
11304;DHT22;5707;49.588;12.148;2023-05-02T12:31:37;19.40;99.90
11304;DHT22;5707;49.588;12.148;2023-05-02T12:34:02;19.50;99.90
11304;DHT22;5707;49.588;12.148;2023-05-02T12:36:28;19.70;99.90
11304;DHT22;5707;49.588;12.148;2023-05-02T12:38:55;19.90;99.90
11304;DHT22;5707;49.588;12.148;2023-05-02T12:41:34;20.40;99.90
11304;DHT22;5707;49.588;12.148;2023-05-02T12:44:00;20.80;97.90
11304;DHT22;5707;49.588;12.148;2023-05-02T12:46:26;20.80;97.50
11304;DHT22;5707;49.588;12.148;2023-05-02T12:49:08;21.10;96.30
11304;DHT22;5707;49.588;12.148;2023-05-02T12:51:35;21.30;95.90
11304;DHT22;5707;49.588;12.148;2023-05-02T12:54:01;21.10;95.20
11304;DHT22;5707;49.588;12.148;2023-05-02T12:56:27;21.00;96.90
11304;DHT22;5707;49.588;12.148;2023-05-02T12:58:57;21.20;96.90
11304;DHT22;5707;49.588;12.148;2023-05-02T13:01:25;21.60;95.10
11304;DHT22;5707;49.588;12.148;2023-05-02T13:03:51;21.80;94.60
11304;DHT22;5707;49.588;12.148;2023-05-02T13:06:17;21.90;94.50
11304;DHT22;5707;49.588;12.148;2023-05-02T13:08:43;21.70;93.10
11304;DHT22;5707;49.588;12.148;2023-05-02T13:11:08;21.10;93.70
11304;DHT22;5707;49.588;12.148;2023-05-02T13:13:35;20.40;93.50
11304;DHT22;5707;49.588;12.148;2023-05-02T13:16:01;19.90;95.90
11304;DHT22;5707;49.588;12.148;2023-05-02T13:18:27;19.20;97.10
11304;DHT22;5707;49.588;12.148;2023-05-02T13:20:52;18.60;98.80
11304;DHT22;5707;49.588;12.148;2023-05-02T13:23:18;17.90;97.80
11304;DHT22;5707;49.588;12.148;2023-05-02T13:25:44;17.30;99.90
11304;DHT22;5707;49.588;12.148;2023-05-02T13:28:10;16.30;99.90
11304;DHT22;5707;49.588;12.148;2023-05-02T13:30:35;15.30;99.90
11304;DHT22;5707;49.588;12.148;2023-05-02T13:33:01;14.50;99.90
11304;DHT22;5707;49.588;12.148;2023-05-02T13:35:26;14.10;99.90
11304;DHT22;5707;49.588;12.148;2023-05-02T13:37:52;13.90;99.90
11304;DHT22;5707;49.588;12.148;2023-05-02T13:40:17;13.80;99.90
11304;DHT22;5707;49.588;12.148;2023-05-02T13:42:43;14.00;99.90
11304;DHT22;5707;49.588;12.148;2023-05-02T13:45:09;14.50;99.90
11304;DHT22;5707;49.588;12.148;2023-05-02T13:47:35;15.00;99.90
11304;DHT22;5707;49.588;12.148;2023-05-02T13:50:00;15.50;99.90
11304;DHT22;5707;49.588;12.148;2023-05-02T13:52:26;15.90;99.90
11304;DHT22;5707;49.588;12.148;2023-05-02T13:54:52;16.40;99.90
11304;DHT22;5707;49.588;12.148;2023-05-02T13:57:17;16.70;99.90
11304;DHT22;5707;49.588;12.148;2023-05-02T13:59:43;16.80;99.90
11304;DHT22;5707;49.588;12.148;2023-05-02T14:02:08;16.90;99.90
11304;DHT22;5707;49.588;12.148;2023-05-02T14:04:34;16.90;99.90
11304;DHT22;5707;49.588;12.148;2023-05-02T14:07:00;16.60;99.90
11304;DHT22;5707;49.588;12.148;2023-05-02T14:09:25;16.50;99.90
11304;DHT22;5707;49.588;12.148;2023-05-02T14:11:51;16.80;99.90
11304;DHT22;5707;49.588;12.148;2023-05-02T14:14:16;17.10;99.90
11304;DHT22;5707;49.588;12.148;2023-05-02T14:16:42;17.20;99.90
11304;DHT22;5707;49.588;12.148;2023-05-02T14:19:08;17.30;99.90
11304;DHT22;5707;49.588;12.148;2023-05-02T14:21:33;17.50;99.90
11304;DHT22;5707;49.588;12.148;2023-05-02T14:23:59;17.60;99.90
11304;DHT22;5707;49.588;12.148;2023-05-02T14:26:24;17.60;99.90
11304;DHT22;5707;49.588;12.148;2023-05-02T14:28:50;17.60;99.90
11304;DHT22;5707;49.588;12.148;2023-05-02T14:31:16;17.60;99.90
11304;DHT22;5707;49.588;12.148;2023-05-02T14:33:41;17.60;99.90
11304;DHT22;5707;49.588;12.148;2023-05-02T14:36:07;17.70;99.90
11304;DHT22;5707;49.588;12.148;2023-05-02T14:38:32;17.90;99.90
11304;DHT22;5707;49.588;12.148;2023-05-02T14:40:58;18.00;99.90
11304;DHT22;5707;49.588;12.148;2023-05-02T14:43:23;18.20;99.90
11304;DHT22;5707;49.588;12.148;2023-05-02T14:45:49;18.10;99.90
11304;DHT22;5707;49.588;12.148;2023-05-02T14:48:15;17.90;99.70
11304;DHT22;5707;49.588;12.148;2023-05-02T14:50:42;17.80;99.60
11304;DHT22;5707;49.588;12.148;2023-05-02T14:53:07;17.70;99.30
11304;DHT22;5707;49.588;12.148;2023-05-02T14:55:37;17.90;99.70
11304;DHT22;5707;49.588;12.148;2023-05-02T14:58:07;17.90;99.70
11304;DHT22;5707;49.588;12.148;2023-05-02T15:00:36;17.80;99.90
11304;DHT22;5707;49.588;12.148;2023-05-02T15:03:06;17.50;99.90
11304;DHT22;5707;49.588;12.148;2023-05-02T15:05:32;17.10;99.90
11304;DHT22;5707;49.588;12.148;2023-05-02T15:07:58;16.90;99.90
11304;DHT22;5707;49.588;12.148;2023-05-02T15:10:24;16.70;99.90
11304;DHT22;5707;49.588;12.148;2023-05-02T15:12:49;16.60;99.90
11304;DHT22;5707;49.588;12.148;2023-05-02T15:15:18;16.60;99.90
11304;DHT22;5707;49.588;12.148;2023-05-02T15:17:49;16.60;99.90
11304;DHT22;5707;49.588;12.148;2023-05-02T15:20:15;16.60;99.90
11304;DHT22;5707;49.588;12.148;2023-05-02T15:22:40;16.60;99.90
11304;DHT22;5707;49.588;12.148;2023-05-02T15:25:06;16.40;99.90
11304;DHT22;5707;49.588;12.148;2023-05-02T15:27:32;16.50;99.90
11304;DHT22;5707;49.588;12.148;2023-05-02T15:29:58;16.50;99.90
11304;DHT22;5707;49.588;12.148;2023-05-02T15:32:23;16.50;99.90
11304;DHT22;5707;49.588;12.148;2023-05-02T15:34:49;16.50;99.90
11304;DHT22;5707;49.588;12.148;2023-05-02T15:37:15;16.60;99.90
11304;DHT22;5707;49.588;12.148;2023-05-02T15:39:40;16.60;99.90
11304;DHT22;5707;49.588;12.148;2023-05-02T15:42:06;16.70;99.90
11304;DHT22;5707;49.588;12.148;2023-05-02T15:44:34;16.90;99.90
11304;DHT22;5707;49.588;12.148;2023-05-02T15:47:00;17.00;99.90
11304;DHT22;5707;49.588;12.148;2023-05-02T15:49:26;17.20;99.90
11304;DHT22;5707;49.588;12.148;2023-05-02T15:51:56;17.20;99.90
11304;DHT22;5707;49.588;12.148;2023-05-02T15:54:21;17.30;99.90
11304;DHT22;5707;49.588;12.148;2023-05-02T15:56:47;17.30;99.90
11304;DHT22;5707;49.588;12.148;2023-05-02T15:59:12;17.30;99.90
11304;DHT22;5707;49.588;12.148;2023-05-02T16:01:38;17.30;99.90
11304;DHT22;5707;49.588;12.148;2023-05-02T16:04:03;17.40;99.90
11304;DHT22;5707;49.588;12.148;2023-05-02T16:06:31;17.80;99.90
11304;DHT22;5707;49.588;12.148;2023-05-02T16:08:58;18.50;99.90
11304;DHT22;5707;49.588;12.148;2023-05-02T16:11:23;19.30;99.90
11304;DHT22;5707;49.588;12.148;2023-05-02T16:13:49;20.00;99.90
11304;DHT22;5707;49.588;12.148;2023-05-02T16:16:14;20.80;99.90
11304;DHT22;5707;49.588;12.148;2023-05-02T16:18:40;21.50;98.60
11304;DHT22;5707;49.588;12.148;2023-05-02T16:21:06;22.00;97.40
11304;DHT22;5707;49.588;12.148;2023-05-02T16:23:31;22.20;96.00